Time;durP1;ratioP1;P1;durP2;ratioP2;P2;SDS_P1;SDS_P2;PMS_P1;PMS_P2;Temp;Humidity;BMP_temperature;BMP_pressure;BME280_temperature;BME280_humidity;BME280_pressure;Samples;Min_cycle;Max_cycle;Signal;HPM_P1;HPM_P2
2022/05/23 00:00:12;;;;;;;;;;;24.00;96.60;23.90;98517.00;;;;343887;28;90514;-86
2022/05/23 00:00:24;;;;;;;;;;;24.00;96.60;23.90;98521.00;;;;343251;28;83418;-86
2022/05/23 00:00:36;;;;;;;;;;;24.00;96.60;23.90;98515.00;;;;341447;28;89461;-86
2022/05/23 00:00:48;;;;;;;;;;;24.00;96.60;23.90;98519.00;;;;342668;28;82465;-86
2022/05/23 00:00:59;;;;;;;;;;;24.00;96.60;24.00;98519.00;;;;342900;28;89422;-86
2022/05/23 00:01:12;;;;;;;;;;;24.00;96.60;24.00;98517.00;;;;342412;28;83208;-86
2022/05/23 00:01:23;;;;;;;;;;;23.90;96.60;23.90;98516.00;;;;341510;28;89192;-86
2022/05/23 00:01:35;;;;;;;;;;;24.00;96.60;23.90;98517.00;;;;341922;28;83232;-86
2022/05/23 00:01:47;;;;;;;;;;;24.00;96.60;23.90;98522.00;;;;344086;28;94532;-86
2022/05/23 00:01:59;;;;;;;;;;;24.00;96.60;23.90;98519.00;;;;343370;28;83274;-86
2022/05/23 00:02:12;;;;;;;;;;;24.00;96.60;23.90;98517.00;;;;342841;28;90098;-86
2022/05/23 00:02:24;;;;;;;;;;;23.90;96.60;24.00;98516.00;;;;343153;28;83292;-86
2022/05/23 00:02:35;;;;;;;;;;;24.00;96.70;24.00;98519.00;;;;341511;28;88366;-86
2022/05/23 00:02:48;;;;;;;;;;;24.00;96.70;24.00;98516.00;;;;343205;28;83332;-86
2022/05/23 00:03:00;;;;;;;;;;;24.00;96.70;23.90;98516.00;;;;342760;28;92106;-86
2022/05/23 00:03:12;;;;;;;;;;;23.90;96.70;23.90;98518.00;;;;342005;28;83410;-86
2022/05/23 00:03:24;;;;;;;;;;;23.90;96.60;23.80;98520.00;;;;341435;28;89202;-86
2022/05/23 00:03:36;;;;;;;;;;;23.90;96.70;23.80;98512.00;;;;341264;28;83899;-86
2022/05/23 00:03:48;;;;;;;;;;;23.90;96.70;23.80;98524.00;;;;342296;28;89256;-86
2022/05/23 00:04:00;;;;;;;;;;;23.90;96.70;23.90;98523.00;;;;341942;28;83312;-86
2022/05/23 00:04:11;;;;;;;;;;;23.90;96.70;23.90;98519.00;;;;342087;28;91801;-86
2022/05/23 00:04:23;;;;;;;;;;;23.90;96.70;23.90;98524.00;;;;341947;28;82486;-86
2022/05/23 00:04:36;;;;;;;;;;;23.90;96.70;23.80;98529.00;;;;341384;28;90310;-86
2022/05/23 00:04:47;;;;;;;;;;;23.90;96.80;23.90;98522.00;;;;341899;28;82485;-86
2022/05/23 00:04:59;;;;;;;;;;;23.90;96.70;24.00;98519.00;;;;340142;28;90284;-86
2022/05/23 00:05:12;;;;;;;;;;;23.90;96.70;24.00;98519.00;;;;342054;28;82287;-85
2022/05/23 00:05:23;;;;;;;;;;;23.90;96.80;23.90;98523.00;;;;345586;28;91875;-86
2022/05/23 00:05:35;;;;;;;;;;;23.90;96.70;23.90;98525.00;;;;343242;28;83575;-86
2022/05/23 00:05:47;;;;;;;;;;;23.90;96.70;23.90;98522.00;;;;341583;28;88089;-86
2022/05/23 00:05:58;;;;;;;;;;;23.90;96.70;23.80;98524.00;;;;341959;28;83407;-86
2022/05/23 00:06:13;;;;;;;;;;;23.90;96.70;23.80;98515.00;;;;341374;28;90524;-87
2022/05/23 00:06:24;;;;;;;;;;;23.90;96.60;23.80;98517.00;;;;343248;28;83457;-86
2022/05/23 00:06:36;;;;;;;;;;;23.90;96.70;23.80;98517.00;;;;340897;28;92233;-87
2022/05/23 00:06:51;;;;;;;;;;;23.90;96.70;23.80;98524.00;;;;341179;28;83287;-86
2022/05/23 00:07:03;;;;;;;;;;;23.80;96.60;23.80;98530.00;;;;340069;28;92783;-86
2022/05/23 00:07:19;;;;;;;;;;;23.80;96.70;23.70;98529.00;;;;344528;28;83461;-86
2022/05/23 00:07:32;;;;;;;;;;;23.80;96.70;23.70;98525.00;;;;342666;28;90460;-86
2022/05/23 00:07:45;;;;;;;;;;;23.80;96.80;23.70;98528.00;;;;342713;28;83456;-86
2022/05/23 00:07:59;;;;;;;;;;;23.80;96.80;23.70;98529.00;;;;345530;28;91819;-86
2022/05/23 00:08:10;;;;;;;;;;;23.80;96.80;23.70;98534.00;;;;343196;28;83401;-86
2022/05/23 00:08:23;;;;;;;;;;;23.80;96.80;23.70;98536.00;;;;342649;28;93540;-86
2022/05/23 00:08:34;;;;;;;;;;;23.80;96.80;23.70;98529.00;;;;343277;28;83301;-86
2022/05/23 00:08:47;;;;;;;;;;;23.80;96.80;23.70;98535.00;;;;342655;28;89110;-86
2022/05/23 00:08:59;;;;;;;;;;;23.80;96.80;23.70;98522.00;;;;341815;28;83476;-86
2022/05/23 00:09:10;;;;;;;;;;;23.80;96.80;23.70;98537.00;;;;341513;28;89418;-86
2022/05/23 00:09:22;;;;;;;;;;;23.80;96.70;23.70;98542.00;;;;340571;28;83352;-86
2022/05/23 00:09:34;;;;;;;;;;;23.70;96.70;23.70;98535.00;;;;341278;28;91088;-86
2022/05/23 00:09:46;;;;;;;;;;;23.80;96.80;23.70;98539.00;;;;340787;28;83411;-86
2022/05/23 00:09:58;;;;;;;;;;;23.80;96.80;23.70;98544.00;;;;341246;28;88858;-86
2022/05/23 00:10:10;;;;;;;;;;;23.80;96.80;23.70;98541.00;;;;343188;28;83180;-86
2022/05/23 00:10:22;;;;;;;;;;;23.70;96.80;23.80;98534.00;;;;341450;28;89817;-86
2022/05/23 00:10:34;;;;;;;;;;;23.80;96.80;23.80;98537.00;;;;341889;28;83262;-86
2022/05/23 00:10:46;;;;;;;;;;;23.80;96.80;23.80;98537.00;;;;342822;28;87797;-86
2022/05/23 00:10:58;;;;;;;;;;;23.80;96.80;23.80;98539.00;;;;343113;28;83377;-85
2022/05/23 00:11:09;;;;;;;;;;;23.80;96.90;23.80;98534.00;;;;341190;28;91988;-86
2022/05/23 00:11:22;;;;;;;;;;;23.80;96.90;23.80;98527.00;;;;343340;28;83280;-86
2022/05/23 00:11:34;;;;;;;;;;;23.80;96.90;23.80;98537.00;;;;342738;28;91901;-86
2022/05/23 00:11:46;;;;;;;;;;;23.80;96.80;23.80;98538.00;;;;344458;28;83145;-86
2022/05/23 00:11:58;;;;;;;;;;;23.80;96.80;23.70;98538.00;;;;344175;28;90872;-86
2022/05/23 00:12:10;;;;;;;;;;;23.80;96.80;23.70;98529.00;;;;344639;28;83311;-86
2022/05/23 00:12:22;;;;;;;;;;;23.80;96.80;23.70;98526.00;;;;344126;28;93056;-86
2022/05/23 00:12:36;;;;;;;;;;;23.80;96.90;23.70;98523.00;;;;341640;28;83150;-85
2022/05/23 00:12:48;;;;;;;;;;;23.70;96.80;23.70;98526.00;;;;342246;28;89192;-86
2022/05/23 00:13:00;;;;;;;;;;;23.70;96.80;23.80;98529.00;;;;341931;28;82493;-85
2022/05/23 00:13:11;;;;;;;;;;;23.70;96.80;23.70;98540.00;;;;343562;28;92194;-86
2022/05/23 00:13:23;;;;;;;;;;;23.70;96.80;23.80;98539.00;;;;343310;28;83289;-86
2022/05/23 00:13:35;;;;;;;;;;;23.70;96.80;23.80;98535.00;;;;342842;28;88866;-86
2022/05/23 00:13:47;;;;;;;;;;;23.80;96.90;23.80;98524.00;;;;343046;28;83522;-86
2022/05/23 00:13:58;;;;;;;;;;;23.80;96.80;23.80;98525.00;;;;342797;28;92176;-86
2022/05/23 00:14:10;;;;;;;;;;;23.80;96.90;23.80;98527.00;;;;343309;28;82375;-86
2022/05/23 00:14:22;;;;;;;;;;;23.80;96.90;23.80;98520.00;;;;342651;28;92938;-85
2022/05/23 00:14:34;;;;;;;;;;;23.70;96.90;23.80;98522.00;;;;340542;28;82353;-86
2022/05/23 00:14:46;;;;;;;;;;;23.70;96.90;23.70;98523.00;;;;339796;28;91935;-87
2022/05/23 00:14:57;;;;;;;;;;;23.70;96.90;23.80;98517.00;;;;342982;28;83389;-86
2022/05/23 00:15:10;;;;;;;;;;;23.80;96.80;23.70;98524.00;;;;342781;28;91962;-86
2022/05/23 00:15:22;;;;;;;;;;;23.70;97.00;23.80;98521.00;;;;344590;28;83460;-86
2022/05/23 00:15:33;;;;;;;;;;;23.70;96.90;23.80;98519.00;;;;345511;28;88644;-86
2022/05/23 00:15:45;;;;;;;;;;;23.70;96.80;23.90;98523.00;;;;346593;28;86238;-86
2022/05/23 00:15:57;;;;;;;;;;;23.70;96.80;23.80;98511.00;;;;345754;28;89224;-85
2022/05/23 00:16:09;;;;;;;;;;;23.70;96.70;23.80;98516.00;;;;346367;28;83445;-86
2022/05/23 00:16:22;;;;;;;;;;;23.70;96.70;23.80;98520.00;;;;346770;28;92069;-87
2022/05/23 00:16:37;;;;;;;;;;;23.70;96.70;23.80;98519.00;;;;344471;28;83505;-86
2022/05/23 00:16:49;;;;;;;;;;;23.80;96.80;23.90;98520.00;;;;342634;28;90325;-86
2022/05/23 00:17:01;;;;;;;;;;;23.80;96.80;23.90;98516.00;;;;343212;28;82359;-86
2022/05/23 00:17:13;;;;;;;;;;;23.80;96.80;23.90;98517.00;;;;342655;28;92303;-86
2022/05/23 00:17:25;;;;;;;;;;;23.80;96.80;23.90;98513.00;;;;343264;28;83358;-86
2022/05/23 00:17:37;;;;;;;;;;;23.80;96.70;23.90;98520.00;;;;342620;28;89168;-86
2022/05/23 00:17:49;;;;;;;;;;;23.80;96.80;23.80;98519.00;;;;343162;28;82877;-86
2022/05/23 00:18:01;;;;;;;;;;;23.80;96.90;23.80;98523.00;;;;342870;28;89435;-86
2022/05/23 00:18:13;;;;;;;;;;;23.80;96.80;23.80;98518.00;;;;343266;28;83393;-86
2022/05/23 00:18:24;;;;;;;;;;;23.80;96.70;23.80;98522.00;;;;344157;28;90220;-86
2022/05/23 00:18:36;;;;;;;;;;;23.80;96.70;23.80;98518.00;;;;343055;28;83694;-86
2022/05/23 00:18:48;;;;;;;;;;;23.80;96.70;23.70;98515.00;;;;342163;28;92108;-86
2022/05/23 00:19:00;;;;;;;;;;;23.80;96.70;23.70;98514.00;;;;341863;28;83237;-86
2022/05/23 00:19:12;;;;;;;;;;;23.80;96.70;23.70;98516.00;;;;340848;28;91101;-87
2022/05/23 00:19:24;;;;;;;;;;;23.70;96.60;23.70;98512.00;;;;341730;28;83269;-86
2022/05/23 00:19:36;;;;;;;;;;;23.70;96.70;23.70;98512.00;;;;341239;28;92761;-86
2022/05/23 00:19:48;;;;;;;;;;;23.70;96.70;23.80;98516.00;;;;343274;28;83502;-86
2022/05/23 00:20:00;;;;;;;;;;;23.70;96.80;23.80;98518.00;;;;341505;28;89187;-86
2022/05/23 00:20:14;;;;;;;;;;;23.70;96.90;23.80;98513.00;;;;341848;28;82317;-86
2022/05/23 00:20:26;;;;;;;;;;;23.70;96.80;23.70;98503.00;;;;341425;28;89786;-86
2022/05/23 00:20:38;;;;;;;;;;;23.70;96.80;23.70;98505.00;;;;343259;28;83491;-86
2022/05/23 00:20:50;;;;;;;;;;;23.70;96.80;23.70;98500.00;;;;342786;28;88767;-86
2022/05/23 00:21:01;;;;;;;;;;;23.70;96.70;23.70;98507.00;;;;343215;28;83128;-86
2022/05/23 00:21:14;;;;;;;;;;;23.70;96.60;23.70;98517.00;;;;344109;28;92326;-86
2022/05/23 00:21:26;;;;;;;;;;;23.70;96.50;23.70;98510.00;;;;345942;28;83175;-86
2022/05/23 00:21:41;;;;;;;;;;;23.70;96.60;23.70;98516.00;;;;345402;27;89264;-86
2022/05/23 00:21:53;;;;;;;;;;;23.70;96.50;23.60;98525.00;;;;344852;28;83525;-86
2022/05/23 00:22:05;;;;;;;;;;;23.70;96.50;23.60;98518.00;;;;345575;28;88887;-86
2022/05/23 00:22:18;;;;;;;;;;;23.70;96.60;23.60;98525.00;;;;345860;28;83449;-86
2022/05/23 00:22:31;;;;;;;;;;;23.70;96.60;23.70;98529.00;;;;341418;28;89315;-86
2022/05/23 00:22:43;;;;;;;;;;;23.70;96.60;23.70;98528.00;;;;342534;28;83375;-86
2022/05/23 00:22:55;;;;;;;;;;;23.70;96.60;23.60;98517.00;;;;345457;28;92331;-86
2022/05/23 00:23:07;;;;;;;;;;;23.70;96.60;23.70;98526.00;;;;345921;28;83190;-86
2022/05/23 00:23:18;;;;;;;;;;;23.70;96.60;23.70;98518.00;;;;344245;28;88819;-86
2022/05/23 00:23:30;;;;;;;;;;;23.60;96.60;23.60;98520.00;;;;343286;28;82383;-86
2022/05/23 00:23:42;;;;;;;;;;;23.60;96.50;23.60;98525.00;;;;342781;28;92189;-86
2022/05/23 00:23:54;;;;;;;;;;;23.60;96.50;23.60;98524.00;;;;343309;28;83319;-86
2022/05/23 00:24:06;;;;;;;;;;;23.60;96.50;23.60;98525.00;;;;344135;28;92057;-86
2022/05/23 00:24:20;;;;;;;;;;;23.60;96.60;23.60;98521.00;;;;344151;28;83794;-86
2022/05/23 00:24:32;;;;;;;;;;;23.60;96.60;23.60;98512.00;;;;344101;28;90435;-86
2022/05/23 00:24:45;;;;;;;;;;;23.60;96.60;23.60;98519.00;;;;346157;28;83651;-86
2022/05/23 00:24:56;;;;;;;;;;;23.60;96.60;23.70;98535.00;;;;342946;28;91065;-86
2022/05/23 00:25:11;;;;;;;;;;;23.60;96.50;23.70;98534.00;;;;343951;28;83343;-86
2022/05/23 00:25:23;;;;;;;;;;;23.60;96.50;23.60;98524.00;;;;342912;28;88776;-87
2022/05/23 00:25:34;;;;;;;;;;;23.60;96.60;23.70;98520.00;;;;343068;28;83504;-85
2022/05/23 00:25:46;;;;;;;;;;;23.60;96.60;23.60;98519.00;;;;343988;28;89053;-85
2022/05/23 00:25:58;;;;;;;;;;;23.60;96.70;23.70;98523.00;;;;344718;28;83336;-86
2022/05/23 00:26:11;;;;;;;;;;;23.60;96.70;23.60;98517.00;;;;344058;28;91477;-86
2022/05/23 00:26:23;;;;;;;;;;;23.60;96.70;23.60;98522.00;;;;344642;28;83332;-86
2022/05/23 00:26:35;;;;;;;;;;;23.60;96.60;23.60;98523.00;;;;345486;28;92192;-86
2022/05/23 00:26:48;;;;;;;;;;;23.60;96.70;23.60;98521.00;;;;345884;28;82443;-86
2022/05/23 00:27:00;;;;;;;;;;;23.60;96.60;23.60;98519.00;;;;345616;28;88015;-86
2022/05/23 00:27:16;;;;;;;;;;;23.60;96.60;23.60;98530.00;;;;345918;28;83339;-86
2022/05/23 00:27:29;;;;;;;;;;;23.60;96.60;23.60;98524.00;;;;344167;28;90987;-86
2022/05/23 00:27:42;;;;;;;;;;;23.60;96.60;23.60;98529.00;;;;345336;28;83495;-86
2022/05/23 00:27:54;;;;;;;;;;;23.60;96.60;23.70;98522.00;;;;343184;28;90539;-86
2022/05/23 00:28:06;;;;;;;;;;;23.60;96.60;23.70;98527.00;;;;345988;28;82360;-86
2022/05/23 00:28:18;;;;;;;;;;;23.60;96.60;23.70;98538.00;;;;344188;28;89129;-86
2022/05/23 00:28:30;;;;;;;;;;;23.60;96.70;23.80;98531.00;;;;344595;28;83368;-86
2022/05/23 00:28:41;;;;;;;;;;;23.60;96.60;23.70;98534.00;;;;344087;28;90384;-86
2022/05/23 00:28:53;;;;;;;;;;;23.60;96.60;23.70;98525.00;;;;343070;28;83582;-86
2022/05/23 00:29:05;;;;;;;;;;;23.60;96.70;23.60;98526.00;;;;342879;28;89112;-86
2022/05/23 00:29:17;;;;;;;;;;;23.60;96.70;23.60;98531.00;;;;344581;28;82501;-86
2022/05/23 00:29:29;;;;;;;;;;;23.60;96.70;23.60;98523.00;;;;344131;28;92474;-86
2022/05/23 00:29:41;;;;;;;;;;;23.60;96.60;23.50;98526.00;;;;343237;28;82378;-86
2022/05/23 00:29:52;;;;;;;;;;;23.60;96.50;23.60;98530.00;;;;344208;28;89064;-86
2022/05/23 00:30:07;;;;;;;;;;;23.60;96.50;23.60;98523.00;;;;344548;28;83274;-86
2022/05/23 00:30:21;;;;;;;;;;;23.60;96.40;23.60;98527.00;;;;342693;28;92033;-86
2022/05/23 00:30:33;;;;;;;;;;;23.60;96.50;23.60;98528.00;;;;344452;28;83288;-86
2022/05/23 00:30:45;;;;;;;;;;;23.60;96.50;23.60;98527.00;;;;343695;28;91676;-86
2022/05/23 00:30:57;;;;;;;;;;;23.60;96.50;23.60;98535.00;;;;343022;28;83608;-86
2022/05/23 00:31:10;;;;;;;;;;;23.60;96.50;23.60;98528.00;;;;343150;28;87862;-86
2022/05/23 00:31:22;;;;;;;;;;;23.60;96.60;23.60;98528.00;;;;344447;28;83497;-86
2022/05/23 00:31:34;;;;;;;;;;;23.60;96.60;23.60;98537.00;;;;345561;28;89309;-86
2022/05/23 00:35:18;;;;;;;;;;;23.50;96.70;23.50;98540.00;;;;348376;27;89636;-86
2022/05/23 00:35:33;;;;;;;;;;;23.50;96.60;23.60;98545.00;;;;347229;28;83325;-86
2022/05/23 00:35:51;;;;;;;;;;;23.50;96.60;23.60;98543.00;;;;342861;28;89509;-86
2022/05/23 00:36:03;;;;;;;;;;;23.50;96.60;23.50;98535.00;;;;344644;28;83338;-86
2022/05/23 00:36:14;;;;;;;;;;;23.50;96.60;23.50;98543.00;;;;342821;28;89060;-86
2022/05/23 00:36:27;;;;;;;;;;;23.50;96.70;23.60;98541.00;;;;344568;28;83682;-86
2022/05/23 00:36:39;;;;;;;;;;;23.50;96.70;23.50;98538.00;;;;345209;28;89076;-86
2022/05/23 00:36:50;;;;;;;;;;;23.60;96.70;23.60;98539.00;;;;345859;28;82389;-86
2022/05/23 00:37:03;;;;;;;;;;;23.50;96.60;23.50;98541.00;;;;342623;28;92784;-86
2022/05/23 00:37:15;;;;;;;;;;;23.50;96.70;23.60;98539.00;;;;344294;28;83438;-86
2022/05/23 00:37:27;;;;;;;;;;;23.50;96.70;23.50;98542.00;;;;345464;28;89233;-86
2022/05/23 00:37:39;;;;;;;;;;;23.50;96.60;23.60;98545.00;;;;344580;28;82224;-85
2022/05/23 00:37:52;;;;;;;;;;;23.50;96.70;23.60;98545.00;;;;342722;28;92711;-85
2022/05/23 00:38:04;;;;;;;;;;;23.50;96.60;23.60;98551.00;;;;344514;28;82527;-86
2022/05/23 00:38:16;;;;;;;;;;;23.50;96.70;23.60;98548.00;;;;344059;28;91141;-86
2022/05/23 00:38:28;;;;;;;;;;;23.50;96.60;23.50;98549.00;;;;344562;28;83372;-86
2022/05/23 00:38:39;;;;;;;;;;;23.50;96.60;23.50;98546.00;;;;345630;28;88732;-86
2022/05/23 00:38:53;;;;;;;;;;;23.50;96.60;23.50;98540.00;;;;345856;28;83205;-86
2022/05/23 00:39:05;;;;;;;;;;;23.50;96.50;23.50;98545.00;;;;345474;28;90256;-86
2022/05/23 00:39:17;;;;;;;;;;;23.50;96.50;23.60;98536.00;;;;345916;28;83298;-86
2022/05/23 00:39:28;;;;;;;;;;;23.50;96.50;23.50;98544.00;;;;342849;28;88089;-86
2022/05/23 00:39:40;;;;;;;;;;;23.50;96.60;23.40;98542.00;;;;344227;28;85147;-86
2022/05/23 00:39:52;;;;;;;;;;;23.50;96.60;23.40;98541.00;;;;344101;28;88736;-86
2022/05/23 00:40:05;;;;;;;;;;;23.50;96.50;23.40;98546.00;;;;345664;28;83382;-86
2022/05/23 00:40:40;;;;;;;;;;;23.50;96.60;23.40;98555.00;;;;343872;28;91597;-86
2022/05/23 00:43:24;;;;;;;;;;;23.40;96.60;23.30;98554.00;;;;344701;28;82342;-85
2022/05/23 00:43:35;;;;;;;;;;;23.40;96.70;23.30;98551.00;;;;345451;28;89665;-85
2022/05/23 00:43:50;;;;;;;;;;;23.40;96.70;23.40;98552.00;;;;344411;28;84085;-85
2022/05/23 00:44:04;;;;;;;;;;;23.30;96.70;23.40;98555.00;;;;342890;28;88380;-86
2022/05/23 00:44:17;;;;;;;;;;;23.40;96.70;23.40;98551.00;;;;343142;28;82623;-86
2022/05/23 00:44:31;;;;;;;;;;;23.30;96.70;23.40;98548.00;;;;342729;28;92581;-86
2022/05/23 00:44:43;;;;;;;;;;;23.30;96.70;23.40;98544.00;;;;343221;28;83224;-85
2022/05/23 00:44:55;;;;;;;;;;;23.40;96.70;23.40;98546.00;;;;342707;28;88248;-86
2022/05/23 00:45:08;;;;;;;;;;;23.40;96.70;23.40;98543.00;;;;344315;28;84029;-85
2022/05/23 00:45:19;;;;;;;;;;;23.30;96.70;23.30;98554.00;;;;345448;28;90048;-86
2022/05/23 00:45:31;;;;;;;;;;;23.30;96.80;23.40;98550.00;;;;344548;28;83302;-86
2022/05/23 00:45:45;;;;;;;;;;;23.30;96.80;23.30;98555.00;;;;343782;28;89240;-86
2022/05/23 00:46:01;;;;;;;;;;;23.30;96.80;23.30;98556.00;;;;344572;28;82509;-86
2022/05/23 00:46:13;;;;;;;;;;;23.30;96.70;23.20;98554.00;;;;346229;28;90456;-86
2022/05/23 00:46:25;;;;;;;;;;;23.30;96.70;23.20;98550.00;;;;345863;28;83525;-86
2022/05/23 00:46:58;;;;;;;;;;;23.30;96.80;23.30;98558.00;;;;344257;28;87772;-86
2022/05/23 00:47:20;;;;;;;;;;;23.30;96.80;23.30;98560.00;;;;344573;28;83364;-86
2022/05/23 00:47:35;;;;;;;;;;;23.30;96.80;23.20;98550.00;;;;342616;28;90951;-86
2022/05/23 00:47:48;;;;;;;;;;;23.30;96.80;23.20;98558.00;;;;343331;28;83282;-86
2022/05/23 00:48:00;;;;;;;;;;;23.30;96.90;23.20;98554.00;;;;342653;28;91537;-86
2022/05/23 00:48:12;;;;;;;;;;;23.20;96.80;23.20;98549.00;;;;341483;28;83429;-86
2022/05/23 00:48:25;;;;;;;;;;;23.20;96.90;23.30;98557.00;;;;342660;28;91604;-85
2022/05/23 00:48:37;;;;;;;;;;;23.20;96.90;23.30;98546.00;;;;344672;28;83296;-85
2022/05/23 00:48:49;;;;;;;;;;;23.20;96.90;23.30;98547.00;;;;345045;28;89054;-86
2022/05/23 00:49:04;;;;;;;;;;;23.30;96.90;23.40;98552.00;;;;344597;28;83189;-86
2022/05/23 00:49:19;;;;;;;;;;;23.20;96.90;23.30;98549.00;;;;344151;28;91506;-86
2022/05/23 00:49:35;;;;;;;;;;;23.30;97.00;23.40;98556.00;;;;344466;28;83245;-85
2022/05/23 00:49:47;;;;;;;;;;;23.30;96.90;23.30;98550.00;;;;343881;28;92101;-86
2022/05/23 00:49:59;;;;;;;;;;;23.30;97.00;23.30;98543.00;;;;344720;28;82395;-86
2022/05/23 00:50:13;;;;;;;;;;;23.20;97.30;23.30;98548.00;;;;343989;28;93279;-86
2022/05/23 00:50:25;;;;;;;;;;;23.20;96.90;23.30;98554.00;;;;341771;28;83459;-86
2022/05/23 00:50:38;;;;;;;;;;;23.30;96.90;23.20;98547.00;;;;342615;28;89068;-86
2022/05/23 00:50:53;;;;;;;;;;;23.20;96.90;23.20;98556.00;;;;344451;28;82501;-86
2022/05/23 00:51:13;;;;;;;;;;;23.20;96.90;23.30;98557.00;;;;344147;28;91308;-86
2022/05/23 00:51:24;;;;;;;;;;;23.30;96.90;23.20;98552.00;;;;344548;28;83288;-86
2022/05/23 00:51:36;;;;;;;;;;;23.20;97.00;23.20;98549.00;;;;342705;28;89552;-86
2022/05/23 00:51:48;;;;;;;;;;;23.20;97.00;23.20;98553.00;;;;344459;28;83439;-85
2022/05/23 00:52:02;;;;;;;;;;;23.20;97.00;23.20;98554.00;;;;342925;28;89028;-86
2022/05/23 00:52:32;;;;;;;;;;;23.20;97.00;23.30;98552.00;;;;345670;28;83540;-86
2022/05/23 00:52:52;;;;;;;;;;;23.20;97.00;23.30;98547.00;;;;344565;28;88537;-86
2022/05/23 00:53:04;;;;;;;;;;;23.20;97.10;23.30;98549.00;;;;344659;28;83320;-86
2022/05/23 00:53:16;;;;;;;;;;;23.20;97.00;23.30;98551.00;;;;341488;28;88876;-86
2022/05/23 00:53:35;;;;;;;;;;;23.30;97.00;23.30;98552.00;;;;344632;28;82379;-86
2022/05/23 00:53:50;;;;;;;;;;;23.30;97.00;23.40;98559.00;;;;344160;28;88633;-86
2022/05/23 00:54:01;;;;;;;;;;;23.30;97.00;23.30;98543.00;;;;344507;28;82322;-85
2022/05/23 00:54:13;;;;;;;;;;;23.20;97.00;23.40;98547.00;;;;343857;28;89329;-85
2022/05/23 00:54:25;;;;;;;;;;;23.20;97.00;23.40;98549.00;;;;343270;28;83320;-85
2022/05/23 00:54:44;;;;;;;;;;;23.20;97.00;23.40;98546.00;;;;342778;28;89482;-86
2022/05/23 00:54:57;;;;;;;;;;;23.30;97.00;23.30;98539.00;;;;346789;28;83498;-85
2022/05/23 00:55:14;;;;;;;;;;;23.20;97.00;23.40;98549.00;;;;345374;28;90512;-86
2022/05/23 00:55:31;;;;;;;;;;;23.20;97.00;23.40;98555.00;;;;347371;28;83339;-86
2022/05/23 00:55:45;;;;;;;;;;;23.30;97.00;23.30;98546.00;;;;344123;28;89549;-86
2022/05/23 00:55:56;;;;;;;;;;;23.30;97.10;23.40;98545.00;;;;345992;28;83369;-85
2022/05/23 00:56:09;;;;;;;;;;;23.20;97.00;23.40;98542.00;;;;344195;28;89626;-86
2022/05/23 00:56:23;;;;;;;;;;;23.30;97.00;23.30;98542.00;;;;344595;28;83293;-86
2022/05/23 00:56:39;;;;;;;;;;;23.30;97.00;23.40;98537.00;;;;345481;28;91688;-85
2022/05/23 00:56:51;;;;;;;;;;;23.30;97.00;23.40;98550.00;;;;344460;28;83399;-86
2022/05/23 00:57:03;;;;;;;;;;;23.30;97.00;23.40;98544.00;;;;345317;28;90517;-86
2022/05/23 00:57:17;;;;;;;;;;;23.30;97.00;23.40;98545.00;;;;342963;28;83295;-86
2022/05/23 00:57:33;;;;;;;;;;;23.30;97.00;23.30;98547.00;;;;343988;28;91897;-85
2022/05/23 00:57:46;;;;;;;;;;;23.30;97.00;23.20;98542.00;;;;346520;28;83336;-86
2022/05/23 00:58:03;;;;;;;;;;;23.30;96.90;23.20;98546.00;;;;346465;28;92915;-86
2022/05/23 00:58:22;;;;;;;;;;;23.20;96.80;23.30;98541.00;;;;345714;28;83429;-85
2022/05/23 00:58:40;;;;;;;;;;;23.20;96.90;23.30;98545.00;;;;344227;28;87817;-86
2022/05/23 00:58:53;;;;;;;;;;;23.20;96.90;23.30;98544.00;;;;344456;28;83279;-86
2022/05/23 00:59:05;;;;;;;;;;;23.20;97.00;23.30;98543.00;;;;344020;28;93079;-86
2022/05/23 00:59:20;;;;;;;;;;;23.20;97.00;23.30;98546.00;;;;344558;28;83376;-85
2022/05/23 00:59:32;;;;;;;;;;;23.20;97.00;23.40;98541.00;;;;342713;28;91009;-86
2022/05/23 00:59:44;;;;;;;;;;;23.20;97.00;23.30;98546.00;;;;343127;28;83247;-86
2022/05/23 00:59:56;;;;;;;;;;;23.20;97.00;23.20;98531.00;;;;342657;28;91698;-85
2022/05/23 01:00:08;;;;;;;;;;;23.20;97.00;23.30;98539.00;;;;344594;28;83688;-86
2022/05/23 01:00:20;;;;;;;;;;;23.20;96.90;23.20;98535.00;;;;342774;28;88795;-86
2022/05/23 01:00:32;;;;;;;;;;;23.20;96.90;23.30;98525.00;;;;343228;28;83345;-86
2022/05/23 01:00:44;;;;;;;;;;;23.20;97.00;23.30;98530.00;;;;344724;28;89499;-85
2022/05/23 01:00:57;;;;;;;;;;;23.20;96.90;23.30;98539.00;;;;342909;28;83425;-86
2022/05/23 01:01:11;;;;;;;;;;;23.20;96.90;23.30;98521.00;;;;342762;28;89332;-86
2022/05/23 01:01:24;;;;;;;;;;;23.20;96.90;23.30;98525.00;;;;343201;28;83355;-86
2022/05/23 01:01:37;;;;;;;;;;;23.20;96.90;23.30;98524.00;;;;342704;28;89033;-86
2022/05/23 01:01:48;;;;;;;;;;;23.20;96.90;23.30;98529.00;;;;344606;28;83465;-86
2022/05/23 01:02:01;;;;;;;;;;;23.20;96.90;23.30;98524.00;;;;342842;28;89428;-86
2022/05/23 01:02:13;;;;;;;;;;;23.20;96.90;23.20;98528.00;;;;344582;28;82403;-86
2022/05/23 01:02:24;;;;;;;;;;;23.20;96.90;23.30;98537.00;;;;344076;28;92016;-86
2022/05/23 01:02:37;;;;;;;;;;;23.20;97.00;23.20;98535.00;;;;344622;28;82439;-86
2022/05/23 01:02:52;;;;;;;;;;;23.20;97.00;23.20;98524.00;;;;345460;28;92208;-86
2022/05/23 01:03:08;;;;;;;;;;;23.20;97.00;23.30;98530.00;;;;344421;28;83596;-86
2022/05/23 01:03:20;;;;;;;;;;;23.20;96.90;23.30;98529.00;;;;344185;28;88695;-86
2022/05/23 01:03:31;;;;;;;;;;;23.20;96.90;23.20;98524.00;;;;344454;28;83404;-86
2022/05/23 01:03:43;;;;;;;;;;;23.20;96.90;23.20;98522.00;;;;344852;28;91939;-85
2022/05/23 01:03:55;;;;;;;;;;;23.20;96.90;23.20;98527.00;;;;345835;28;83341;-86
2022/05/23 01:04:07;;;;;;;;;;;23.20;96.90;23.30;98526.00;;;;344988;28;92479;-86
2022/05/23 01:04:19;;;;;;;;;;;23.20;96.90;23.20;98523.00;;;;344482;28;83544;-85
2022/05/23 01:04:32;;;;;;;;;;;23.20;96.90;23.30;98525.00;;;;343795;28;89265;-85
2022/05/23 01:04:43;;;;;;;;;;;23.20;97.00;23.30;98527.00;;;;343633;28;83495;-86
2022/05/23 01:04:56;;;;;;;;;;;23.20;97.00;23.30;98521.00;;;;342779;28;88430;-86
2022/05/23 01:05:08;;;;;;;;;;;23.20;97.00;23.30;98517.00;;;;343247;28;83371;-86
2022/05/23 01:05:20;;;;;;;;;;;23.20;97.00;23.30;98524.00;;;;342804;28;89581;-86
2022/05/23 01:05:34;;;;;;;;;;;23.20;97.00;23.30;98524.00;;;;343159;28;83306;-86
2022/05/23 01:05:46;;;;;;;;;;;23.20;97.00;23.20;98525.00;;;;344147;28;89426;-86
2022/05/23 01:05:57;;;;;;;;;;;23.20;97.10;23.30;98523.00;;;;344613;28;83423;-86
2022/05/23 01:06:09;;;;;;;;;;;23.20;97.00;23.30;98525.00;;;;342725;28;90526;-85
2022/05/23 01:06:21;;;;;;;;;;;23.20;97.00;23.30;98526.00;;;;343136;28;82611;-86
2022/05/23 01:06:33;;;;;;;;;;;23.10;97.00;23.20;98521.00;;;;344197;28;89359;-86
2022/05/23 01:06:45;;;;;;;;;;;23.20;97.00;23.20;98519.00;;;;345572;28;83275;-86
2022/05/23 01:06:57;;;;;;;;;;;23.20;97.00;23.20;98517.00;;;;345369;28;87576;-86
2022/05/23 01:07:08;;;;;;;;;;;23.20;97.20;23.20;98529.00;;;;344028;28;83325;-86
2022/05/23 01:07:20;;;;;;;;;;;23.20;97.00;23.20;98529.00;;;;344188;28;89063;-85
2022/05/23 01:07:32;;;;;;;;;;;23.20;96.90;23.30;98521.00;;;;345888;28;83392;-86
2022/05/23 01:07:44;;;;;;;;;;;23.20;96.90;23.20;98509.00;;;;343158;28;88774;-85
2022/05/23 01:07:56;;;;;;;;;;;23.20;96.90;23.20;98523.00;;;;344284;28;83398;-86
2022/05/23 01:08:08;;;;;;;;;;;23.20;96.90;23.30;98528.00;;;;345306;28;93429;-86
2022/05/23 01:08:19;;;;;;;;;;;23.20;96.90;23.20;98518.00;;;;347210;28;83217;-86
2022/05/23 01:08:34;;;;;;;;;;;23.20;97.00;23.20;98521.00;;;;346937;28;89133;-86
2022/05/23 01:08:46;;;;;;;;;;;23.20;97.00;23.20;98517.00;;;;347278;28;83506;-86
2022/05/23 01:08:57;;;;;;;;;;;23.20;97.00;23.20;98525.00;;;;346929;28;89088;-86
2022/05/23 01:09:09;;;;;;;;;;;23.20;97.10;23.20;98516.00;;;;346025;28;83310;-86
2022/05/23 01:09:23;;;;;;;;;;;23.20;97.10;23.20;98523.00;;;;348304;27;89098;-86
2022/05/23 01:09:35;;;;;;;;;;;23.20;97.10;23.10;98519.00;;;;347370;28;83181;-85